createdAt,value
2023-04-04T00:01:49.588Z,102569.67
2023-04-04T00:06:56.059Z,102565.70
2023-04-04T00:12:01.640Z,102561.28
2023-04-04T00:17:07.465Z,102556.01
2023-04-04T00:22:14.708Z,102552.92
2023-04-04T00:27:20.388Z,102548.87
2023-04-04T00:32:26.294Z,102541.78
2023-04-04T00:37:32.041Z,102533.41
2023-04-04T00:42:37.782Z,102543.56
2023-04-04T00:47:45.663Z,102543.06
2023-04-04T00:52:51.634Z,102532.91
2023-04-04T00:57:57.405Z,102534.20
2023-04-04T01:03:04.057Z,102529.33
2023-04-04T01:08:09.662Z,102522.29
2023-04-04T01:13:16.597Z,102513.07
2023-04-04T01:18:25.054Z,102507.81
2023-04-04T01:23:48.535Z,102509.52
2023-04-04T01:28:58.908Z,102509.46
2023-04-04T01:34:16.831Z,102508.07
2023-04-04T01:39:28.088Z,102503.14
2023-04-04T01:44:33.984Z,102503.92
2023-04-04T01:49:39.765Z,102500.84
2023-04-04T01:54:45.463Z,102497.18
2023-04-04T01:59:51.137Z,102494.45
2023-04-04T02:04:56.836Z,102486.59
2023-04-04T02:10:02.433Z,102485.98
2023-04-04T02:15:09.027Z,102485.48
2023-04-04T02:20:14.505Z,102477.11
2023-04-04T02:25:20.861Z,102482.80
2023-04-04T02:30:27.304Z,102475.83
2023-04-04T02:35:33.172Z,102474.53
2023-04-04T02:40:40.960Z,102468.02
2023-04-04T02:45:51.463Z,102469.83
2023-04-04T02:50:58.839Z,102469.67
2023-04-04T02:56:05.354Z,102470.36
2023-04-04T03:01:11.118Z,102464.61
2023-04-04T03:06:17.067Z,102461.05
2023-04-04T03:11:24.318Z,102455.66
2023-04-04T03:16:31.303Z,102453.93
2023-04-04T03:21:37.062Z,102456.17
2023-04-04T03:26:42.624Z,102452.71
2023-04-04T03:31:48.746Z,102444.70
2023-04-04T03:36:54.461Z,102439.80
2023-04-04T03:42:01.484Z,102432.41
2023-04-04T03:47:07.184Z,102428.47
2023-04-04T03:52:13.032Z,102416.70
2023-04-04T03:57:18.790Z,102411.47
2023-04-04T04:02:24.442Z,102402.96
2023-04-04T04:07:30.090Z,102406.09
2023-04-04T04:12:36.799Z,102402.66
2023-04-04T04:17:42.734Z,102392.69
2023-04-04T04:22:51.015Z,102397.58
2023-04-04T04:27:58.082Z,102394.55
2023-04-04T04:33:04.584Z,102390.76
2023-04-04T04:38:12.877Z,102394.16
2023-04-04T04:43:19.082Z,102384.00
2023-04-04T04:48:26.344Z,102379.25
2023-04-04T04:53:33.549Z,102385.01
2023-04-04T04:58:39.072Z,102386.85
2023-04-04T05:03:46.870Z,102382.61
2023-04-04T05:08:54.062Z,102381.81
2023-04-04T05:14:02.075Z,102376.91
2023-04-04T05:19:09.279Z,102378.83
2023-04-04T05:24:17.518Z,102385.95
2023-04-04T05:29:23.152Z,102386.92
2023-04-04T05:34:30.216Z,102391.83
2023-04-04T05:39:36.757Z,102387.09
2023-04-04T05:44:44.704Z,102395.09
2023-04-04T05:49:50.692Z,102396.55
2023-04-04T05:54:57.564Z,102386.98
2023-04-04T06:00:06.227Z,102386.22
2023-04-04T06:05:13.541Z,102382.77
2023-04-04T06:10:19.294Z,102390.34
2023-04-04T06:15:25.594Z,102391.25
2023-04-04T06:20:31.327Z,102393.47
2023-04-04T06:25:39.981Z,102384.70
2023-04-04T06:30:46.142Z,102389.11
2023-04-04T06:35:53.251Z,102388.69
2023-04-04T06:40:59.542Z,102385.56
2023-04-04T06:46:05.542Z,102381.17
2023-04-04T06:51:11.654Z,102391.69
2023-04-04T06:56:18.855Z,102380.70
2023-04-04T07:01:24.457Z,102379.37
2023-04-04T07:06:29.990Z,102380.27
2023-04-04T07:11:35.564Z,102374.00
2023-04-04T07:16:41.054Z,102366.42
2023-04-04T07:21:46.690Z,102366.42
2023-04-04T07:26:52.440Z,102381.34
2023-04-04T07:31:58.074Z,102367.20
2023-04-04T07:37:03.895Z,102367.09
2023-04-04T07:42:18.543Z,102364.77
2023-04-04T07:47:24.087Z,102368.80
2023-04-04T07:52:29.692Z,102366.55
2023-04-04T07:57:39.831Z,102357.95
2023-04-04T08:02:45.798Z,102358.45
2023-04-04T08:07:51.498Z,102361.37
2023-04-04T08:12:59.159Z,102349.80
2023-04-04T08:18:04.840Z,102343.18
2023-04-04T08:23:10.975Z,102340.36
2023-04-04T08:28:16.500Z,102335.69
2023-04-04T08:33:34.255Z,102335.73
2023-04-04T08:38:32.992Z,102333.42
2023-04-04T08:43:41.645Z,102327.49
2023-04-04T08:48:48.786Z,102320.45
2023-04-04T08:53:55.373Z,102320.91
2023-04-04T08:59:01.123Z,102328.14
2023-04-04T09:04:07.497Z,102318.82
2023-04-04T09:09:14.735Z,102308.16
2023-04-04T09:14:22.297Z,102307.30
2023-04-04T09:19:27.738Z,102306.73
2023-04-04T09:24:43.806Z,102304.13
2023-04-04T09:29:50.047Z,102305.98
2023-04-04T09:34:56.616Z,102305.55
2023-04-04T09:40:03.079Z,102293.45
2023-04-04T09:45:11.674Z,102298.78
2023-04-04T09:50:24.933Z,102300.93
2023-04-04T09:55:36.647Z,102297.64
2023-04-04T10:00:44.976Z,102289.99
2023-04-04T10:06:06.987Z,102285.61
2023-04-04T10:11:12.829Z,102282.11
2023-04-04T10:16:20.111Z,102275.69
2023-04-04T10:21:25.728Z,102269.33
2023-04-04T10:26:31.450Z,102267.25
2023-04-04T10:31:41.162Z,102260.33
2023-04-04T10:37:13.153Z,102258.02
2023-04-04T10:42:20.133Z,102257.73
2023-04-04T10:47:29.501Z,102239.64
2023-04-04T10:52:36.335Z,102237.86
2023-04-04T10:57:44.890Z,102236.55
2023-04-04T11:02:57.080Z,102234.41
2023-04-04T11:08:08.556Z,102220.91
2023-04-04T11:13:21.810Z,102214.72
2023-04-04T11:18:42.420Z,102223.72
2023-04-04T11:24:02.274Z,102216.86
2023-04-04T11:29:12.886Z,102219.06
2023-04-04T11:34:32.751Z,102215.13
2023-04-04T11:39:41.302Z,102200.63
2023-04-04T11:45:04.432Z,102188.88
2023-04-04T11:50:12.767Z,102197.92
2023-04-04T11:55:20.147Z,102190.42
2023-04-04T12:00:36.057Z,102177.06
2023-04-04T12:05:44.023Z,102175.21
2023-04-04T12:10:51.169Z,102176.54
2023-04-04T12:15:57.831Z,102166.47
2023-04-04T12:21:03.704Z,102159.22
2023-04-04T12:26:11.373Z,102156.02
2023-04-04T12:31:17.942Z,102150.17
2023-04-04T12:36:29.918Z,102150.28
2023-04-04T12:41:36.929Z,102136.19
2023-04-04T12:46:47.789Z,102129.04
2023-04-04T12:51:55.288Z,102129.77
2023-04-04T12:57:04.204Z,102131.02
2023-04-04T13:02:12.515Z,102115.56
2023-04-04T13:07:28.829Z,102108.95
2023-04-04T13:12:57.128Z,102105.88
2023-04-04T13:18:05.769Z,102094.30
2023-04-04T13:23:11.659Z,102087.92
2023-04-04T13:28:17.337Z,102082.80
2023-04-04T13:33:22.835Z,102077.25
2023-04-04T13:38:29.899Z,102073.66
2023-04-04T13:43:35.488Z,102074.54
2023-04-04T13:48:42.010Z,102063.87
2023-04-04T13:53:49.277Z,102066.23
2023-04-04T13:58:54.907Z,102064.27
2023-04-04T14:04:05.261Z,102057.52
2023-04-04T14:09:07.756Z,102054.39
2023-04-04T14:14:13.369Z,102052.22
2023-04-04T14:19:18.832Z,102042.76
2023-04-04T14:24:24.671Z,102044.09
2023-04-04T14:29:30.167Z,102039.31
2023-04-04T14:34:35.659Z,102033.43
2023-04-04T14:39:41.098Z,102036.33
2023-04-04T14:44:46.706Z,102031.72
2023-04-04T14:49:54.189Z,102036.67
2023-04-04T14:55:01.094Z,102034.12
2023-04-04T15:00:08.009Z,102029.28
2023-04-04T15:05:14.504Z,102025.32
2023-04-04T15:10:20.076Z,102029.09
2023-04-04T15:15:29.121Z,102014.44
2023-04-04T15:20:37.986Z,102019.98
2023-04-04T15:25:43.539Z,102012.30
2023-04-04T15:30:49.174Z,102014.77
2023-04-04T15:35:54.774Z,102018.28
2023-04-04T15:41:00.665Z,102010.97
2023-04-04T15:46:06.643Z,102012.80
2023-04-04T15:51:12.619Z,102005.44
2023-04-04T15:56:18.039Z,102010.88
2023-04-04T16:01:24.202Z,102018.52
2023-04-04T16:06:31.343Z,102014.94
2023-04-04T16:11:37.231Z,102015.94
2023-04-04T16:16:42.871Z,102012.77
2023-04-04T16:21:49.452Z,102005.17
2023-04-04T16:26:54.906Z,102020.09
2023-04-04T16:32:00.683Z,102013.17
2023-04-04T16:37:06.557Z,102006.06
2023-04-04T16:42:12.081Z,102005.16
2023-04-04T16:47:17.519Z,102010.59
2023-04-04T16:52:23.162Z,102003.31
2023-04-04T16:57:28.808Z,102009.66
2023-04-04T17:02:34.457Z,102001.31
2023-04-04T17:07:40.078Z,101995.50
2023-04-04T17:12:45.895Z,101995.68
2023-04-04T17:17:52.201Z,102000.25
2023-04-04T17:22:57.941Z,101990.88
2023-04-04T17:28:04.607Z,101995.34
2023-04-04T17:33:10.189Z,101990.78
2023-04-04T17:38:16.016Z,102000.81
2023-04-04T17:43:22.234Z,101990.36
2023-04-04T17:48:29.726Z,101991.55
2023-04-04T17:53:35.162Z,101988.72
2023-04-04T17:58:41.935Z,101993.23
2023-04-04T18:03:47.835Z,101992.14
2023-04-04T18:08:53.473Z,101993.52
2023-04-04T18:13:59.065Z,101984.52
2023-04-04T18:19:04.604Z,101987.39
2023-04-04T18:24:11.974Z,101990.95
2023-04-04T18:29:17.666Z,101989.75
2023-04-04T18:34:23.178Z,101996.59
2023-04-04T18:39:29.253Z,102003.13
2023-04-04T18:44:35.032Z,102000.06
2023-04-04T18:49:41.009Z,101993.64
2023-04-04T18:54:47.194Z,101986.22
2023-04-04T18:59:52.862Z,101999.72
2023-04-04T19:05:00.968Z,102001.64
2023-04-04T19:10:08.177Z,101999.27
2023-04-04T19:15:13.850Z,101999.27
2023-04-04T19:20:19.917Z,101990.52
2023-04-04T19:25:25.707Z,101990.52
2023-04-04T19:30:49.136Z,102004.43
2023-04-04T19:36:01.209Z,102004.43
2023-04-04T19:41:32.439Z,102008.64
2023-04-04T19:46:38.160Z,102003.41
2023-04-04T19:51:57.652Z,101995.00
2023-04-04T19:57:09.538Z,101989.72
2023-04-04T20:02:39.104Z,101988.95
2023-04-04T20:07:44.876Z,101985.80
2023-04-04T20:12:50.573Z,101985.36
2023-04-04T20:17:56.143Z,101978.09
2023-04-04T20:23:03.884Z,101979.37
2023-04-04T20:28:09.638Z,101972.27
2023-04-04T20:33:39.211Z,101977.42
2023-04-04T20:38:45.163Z,101965.45
2023-04-04T20:43:53.286Z,101965.06
2023-04-04T20:49:00.261Z,101961.41
2023-04-04T20:54:08.209Z,101962.72
2023-04-04T20:59:34.668Z,101962.72
2023-04-04T21:04:42.145Z,101956.16
2023-04-04T21:09:47.704Z,101963.67
2023-04-04T21:14:53.360Z,101956.59
2023-04-04T21:19:59.235Z,101947.36
2023-04-04T21:25:07.813Z,101951.59
2023-04-04T21:30:16.269Z,101947.63
2023-04-04T21:35:24.743Z,101939.66
2023-04-04T21:40:31.665Z,101938.20
2023-04-04T21:45:37.081Z,101925.41
2023-04-04T21:50:42.686Z,101931.45
2023-04-04T21:55:48.403Z,101929.88
2023-04-04T22:00:53.939Z,101920.59
2023-04-04T22:05:59.610Z,101920.59
2023-04-04T22:11:05.993Z,101914.83
2023-04-04T22:16:13.114Z,101914.83
2023-04-04T22:21:21.106Z,101913.05
2023-04-04T22:26:31.122Z,101913.05
2023-04-04T22:31:38.018Z,101915.08
2023-04-04T22:36:44.134Z,101909.64
2023-04-04T22:41:49.800Z,101904.91
2023-04-04T22:46:56.961Z,101903.95
2023-04-04T22:52:04.037Z,101900.10
2023-04-04T22:57:09.725Z,101897.35
2023-04-04T23:02:15.177Z,101890.77
2023-04-04T23:07:22.107Z,101890.77
2023-04-04T23:12:27.711Z,101887.20
2023-04-04T23:17:33.719Z,101887.20
2023-04-04T23:22:39.993Z,101879.16
2023-04-04T23:27:45.841Z,101879.16
2023-04-04T23:32:51.526Z,101885.67
2023-04-04T23:37:57.038Z,101874.22
2023-04-04T23:43:02.536Z,101870.05
2023-04-04T23:48:08.229Z,101864.13
2023-04-04T23:53:14.271Z,101864.13
2023-04-04T23:58:19.702Z,101856.09
